sensor_id;sensor_type;location;lat;lon;timestamp;temperature;humidity
43528;DHT22;52359;42.658;23.320;2022-10-18T02:42:58;5.10;99.90
43528;DHT22;52359;42.658;23.320;2022-10-18T02:45:24;5.10;99.90
43528;DHT22;52359;42.658;23.320;2022-10-18T02:47:51;5.00;99.90
43528;DHT22;52359;42.658;23.320;2022-10-18T02:50:17;4.90;99.90
43528;DHT22;52359;42.658;23.320;2022-10-18T02:52:42;4.90;99.90
43528;DHT22;52359;42.658;23.320;2022-10-18T02:55:09;4.80;99.90
43528;DHT22;52359;42.658;23.320;2022-10-18T02:57:35;5.10;99.90
43528;DHT22;52359;42.658;23.320;2022-10-18T03:00:03;5.20;99.90
43528;DHT22;52359;42.658;23.320;2022-10-18T03:02:29;5.10;99.90
43528;DHT22;52359;42.658;23.320;2022-10-18T03:04:55;5.10;99.90
43528;DHT22;52359;42.658;23.320;2022-10-18T03:07:20;4.90;99.90
43528;DHT22;52359;42.658;23.320;2022-10-18T03:09:46;5.10;99.90
43528;DHT22;52359;42.658;23.320;2022-10-18T03:12:12;5.00;99.90
43528;DHT22;52359;42.658;23.320;2022-10-18T03:14:37;4.90;99.90
43528;DHT22;52359;42.658;23.320;2022-10-18T03:17:03;4.90;99.90
43528;DHT22;52359;42.658;23.320;2022-10-18T03:19:29;4.90;99.90
43528;DHT22;52359;42.658;23.320;2022-10-18T03:21:54;4.90;99.90
43528;DHT22;52359;42.658;23.320;2022-10-18T03:24:20;5.00;99.90
43528;DHT22;52359;42.658;23.320;2022-10-18T03:26:46;4.90;99.90
43528;DHT22;52359;42.658;23.320;2022-10-18T03:29:11;4.80;99.90
43528;DHT22;52359;42.658;23.320;2022-10-18T03:36:29;4.90;99.90
43528;DHT22;52359;42.658;23.320;2022-10-18T03:38:55;4.90;99.90
43528;DHT22;52359;42.658;23.320;2022-10-18T03:41:20;4.70;99.90
43528;DHT22;52359;42.658;23.320;2022-10-18T03:43:46;4.80;99.90
43528;DHT22;52359;42.658;23.320;2022-10-18T03:48:38;4.60;99.90
43528;DHT22;52359;42.658;23.320;2022-10-18T03:53:30;4.50;99.90
43528;DHT22;52359;42.658;23.320;2022-10-18T03:55:56;4.80;99.90
43528;DHT22;52359;42.658;23.320;2022-10-18T03:58:22;4.70;99.90
43528;DHT22;52359;42.658;23.320;2022-10-18T04:00:52;4.80;99.90
43528;DHT22;52359;42.658;23.320;2022-10-18T04:03:20;4.80;99.90
43528;DHT22;52359;42.658;23.320;2022-10-18T04:05:46;4.70;99.90
43528;DHT22;52359;42.658;23.320;2022-10-18T04:10:39;4.30;99.90
43528;DHT22;52359;42.658;23.320;2022-10-18T04:13:06;4.40;99.90
43528;DHT22;52359;42.658;23.320;2022-10-18T04:15:31;4.50;99.90
43528;DHT22;52359;42.658;23.320;2022-10-18T04:17:57;4.60;99.90
43528;DHT22;52359;42.658;23.320;2022-10-18T04:20:24;4.80;99.90
43528;DHT22;52359;42.658;23.320;2022-10-18T04:22:50;4.80;99.90
43528;DHT22;52359;42.658;23.320;2022-10-18T04:25:16;4.80;99.90
43528;DHT22;52359;42.658;23.320;2022-10-18T04:27:42;4.70;99.90
43528;DHT22;52359;42.658;23.320;2022-10-18T04:30:09;4.60;99.90
43528;DHT22;52359;42.658;23.320;2022-10-18T04:32:35;4.70;99.90
43528;DHT22;52359;42.658;23.320;2022-10-18T04:35:01;4.80;99.90
43528;DHT22;52359;42.658;23.320;2022-10-18T04:37:27;4.70;99.90
43528;DHT22;52359;42.658;23.320;2022-10-18T04:39:53;4.70;99.90
43528;DHT22;52359;42.658;23.320;2022-10-18T04:42:19;4.60;99.90
43528;DHT22;52359;42.658;23.320;2022-10-18T04:44:44;4.60;99.90
43528;DHT22;52359;42.658;23.320;2022-10-18T04:47:10;4.50;99.90
43528;DHT22;52359;42.658;23.320;2022-10-18T04:49:35;4.40;99.90
43528;DHT22;52359;42.658;23.320;2022-10-18T04:52:02;4.50;99.90
43528;DHT22;52359;42.658;23.320;2022-10-18T04:54:28;4.60;99.90
43528;DHT22;52359;42.658;23.320;2022-10-18T04:56:54;4.70;99.90
43528;DHT22;52359;42.658;23.320;2022-10-18T04:59:19;4.70;99.90
43528;DHT22;52359;42.658;23.320;2022-10-18T05:01:45;4.70;99.90
43528;DHT22;52359;42.658;23.320;2022-10-18T05:04:11;4.60;99.90
43528;DHT22;52359;42.658;23.320;2022-10-18T05:06:37;4.80;99.90
43528;DHT22;52359;42.658;23.320;2022-10-18T05:09:02;4.80;99.90
43528;DHT22;52359;42.658;23.320;2022-10-18T05:11:28;4.90;99.90
43528;DHT22;52359;42.658;23.320;2022-10-18T05:13:54;5.00;99.90
43528;DHT22;52359;42.658;23.320;2022-10-18T05:16:19;5.00;99.90
43528;DHT22;52359;42.658;23.320;2022-10-18T05:18:45;5.20;99.90
43528;DHT22;52359;42.658;23.320;2022-10-18T05:21:10;5.60;99.90
43528;DHT22;52359;42.658;23.320;2022-10-18T05:23:37;5.60;99.90
43528;DHT22;52359;42.658;23.320;2022-10-18T05:26:05;5.80;99.90
43528;DHT22;52359;42.658;23.320;2022-10-18T05:28:31;6.00;99.90
43528;DHT22;52359;42.658;23.320;2022-10-18T05:31:05;6.10;99.90
43528;DHT22;52359;42.658;23.320;2022-10-18T05:33:31;6.40;99.90
43528;DHT22;52359;42.658;23.320;2022-10-18T05:35:57;6.60;99.90
43528;DHT22;52359;42.658;23.320;2022-10-18T05:38:24;6.70;99.90
43528;DHT22;52359;42.658;23.320;2022-10-18T05:40:50;6.80;99.90
43528;DHT22;52359;42.658;23.320;2022-10-18T05:43:15;7.30;99.90
43528;DHT22;52359;42.658;23.320;2022-10-18T05:45:49;7.60;99.90
43528;DHT22;52359;42.658;23.320;2022-10-18T05:48:15;7.80;99.90
43528;DHT22;52359;42.658;23.320;2022-10-18T05:50:42;8.00;99.90
43528;DHT22;52359;42.658;23.320;2022-10-18T05:53:07;8.30;99.90
43528;DHT22;52359;42.658;23.320;2022-10-18T05:55:33;8.60;99.90
43528;DHT22;52359;42.658;23.320;2022-10-18T05:57:59;8.70;99.90
43528;DHT22;52359;42.658;23.320;2022-10-18T06:00:24;8.90;99.90
43528;DHT22;52359;42.658;23.320;2022-10-18T06:02:50;9.10;99.90
43528;DHT22;52359;42.658;23.320;2022-10-18T06:05:16;9.60;99.90
43528;DHT22;52359;42.658;23.320;2022-10-18T06:07:41;9.90;99.90
43528;DHT22;52359;42.658;23.320;2022-10-18T06:10:07;10.10;99.90
43528;DHT22;52359;42.658;23.320;2022-10-18T06:12:33;10.40;99.90
43528;DHT22;52359;42.658;23.320;2022-10-18T06:14:59;10.50;99.90
43528;DHT22;52359;42.658;23.320;2022-10-18T06:17:24;10.70;99.90
43528;DHT22;52359;42.658;23.320;2022-10-18T06:19:50;11.00;99.90
43528;DHT22;52359;42.658;23.320;2022-10-18T06:22:16;11.30;99.90
43528;DHT22;52359;42.658;23.320;2022-10-18T06:24:41;11.30;99.90
43528;DHT22;52359;42.658;23.320;2022-10-18T06:27:07;11.50;99.90
43528;DHT22;52359;42.658;23.320;2022-10-18T06:29:39;11.80;99.90
43528;DHT22;52359;42.658;23.320;2022-10-18T06:32:06;12.10;99.90
43528;DHT22;52359;42.658;23.320;2022-10-18T06:34:32;12.10;99.90
43528;DHT22;52359;42.658;23.320;2022-10-18T06:36:58;12.20;99.90
43528;DHT22;52359;42.658;23.320;2022-10-18T06:39:24;12.40;99.90
43528;DHT22;52359;42.658;23.320;2022-10-18T06:41:50;12.50;99.60
43528;DHT22;52359;42.658;23.320;2022-10-18T06:44:16;12.80;99.30
43528;DHT22;52359;42.658;23.320;2022-10-18T06:46:43;12.90;98.50
43528;DHT22;52359;42.658;23.320;2022-10-18T06:49:10;13.30;98.70
43528;DHT22;52359;42.658;23.320;2022-10-18T06:51:36;13.60;98.80
43528;DHT22;52359;42.658;23.320;2022-10-18T06:54:02;13.60;98.90
43528;DHT22;52359;42.658;23.320;2022-10-18T06:56:28;14.00;98.90
43528;DHT22;52359;42.658;23.320;2022-10-18T06:58:54;14.20;98.90
43528;DHT22;52359;42.658;23.320;2022-10-18T07:01:20;14.10;98.80
43528;DHT22;52359;42.658;23.320;2022-10-18T07:03:47;14.40;98.10
43528;DHT22;52359;42.658;23.320;2022-10-18T07:06:15;14.50;97.50
43528;DHT22;52359;42.658;23.320;2022-10-18T07:08:42;14.80;97.10
43528;DHT22;52359;42.658;23.320;2022-10-18T07:11:13;15.20;95.80
43528;DHT22;52359;42.658;23.320;2022-10-18T07:13:39;15.60;94.90
43528;DHT22;52359;42.658;23.320;2022-10-18T07:18:37;15.50;93.80
43528;DHT22;52359;42.658;23.320;2022-10-18T07:21:04;15.70;93.30
43528;DHT22;52359;42.658;23.320;2022-10-18T07:23:32;15.90;93.30
43528;DHT22;52359;42.658;23.320;2022-10-18T07:25:58;16.20;91.90
43528;DHT22;52359;42.658;23.320;2022-10-18T07:28:24;16.50;91.70
43528;DHT22;52359;42.658;23.320;2022-10-18T07:30:49;16.70;90.90
43528;DHT22;52359;42.658;23.320;2022-10-18T07:33:15;17.10;90.00
43528;DHT22;52359;42.658;23.320;2022-10-18T07:35:41;17.30;88.80
43528;DHT22;52359;42.658;23.320;2022-10-18T07:38:06;17.10;88.90
43528;DHT22;52359;42.658;23.320;2022-10-18T07:40:32;17.20;89.30
43528;DHT22;52359;42.658;23.320;2022-10-18T07:42:57;17.20;88.40
43528;DHT22;52359;42.658;23.320;2022-10-18T07:45:23;17.50;88.00
43528;DHT22;52359;42.658;23.320;2022-10-18T07:47:55;17.50;88.10
43528;DHT22;52359;42.658;23.320;2022-10-18T07:50:22;17.80;90.10
43528;DHT22;52359;42.658;23.320;2022-10-18T07:52:48;17.70;88.50
43528;DHT22;52359;42.658;23.320;2022-10-18T07:55:13;18.00;87.70
43528;DHT22;52359;42.658;23.320;2022-10-18T07:57:39;18.30;85.50
43528;DHT22;52359;42.658;23.320;2022-10-18T08:00:05;17.60;87.00
43528;DHT22;52359;42.658;23.320;2022-10-18T08:02:33;17.40;88.80
43528;DHT22;52359;42.658;23.320;2022-10-18T08:07:25;18.70;86.30
43528;DHT22;52359;42.658;23.320;2022-10-18T08:09:50;18.80;85.50
43528;DHT22;52359;42.658;23.320;2022-10-18T08:12:16;19.10;85.40
43528;DHT22;52359;42.658;23.320;2022-10-18T08:14:42;19.10;84.50
43528;DHT22;52359;42.658;23.320;2022-10-18T10:28:42;41.30;41.20
43528;DHT22;52359;42.658;23.320;2022-10-18T16:15:38;17.50;56.60
43528;DHT22;52359;42.658;23.320;2022-10-18T16:18:04;17.50;56.80
43528;DHT22;52359;42.658;23.320;2022-10-18T19:05:32;10.70;76.90
43528;DHT22;52359;42.658;23.320;2022-10-18T19:07:58;10.50;78.80
43528;DHT22;52359;42.658;23.320;2022-10-18T19:10:24;10.40;79.50
43528;DHT22;52359;42.658;23.320;2022-10-18T19:12:50;10.60;82.40
43528;DHT22;52359;42.658;23.320;2022-10-18T19:15:34;10.30;83.20
43528;DHT22;52359;42.658;23.320;2022-10-18T19:17:59;10.20;83.90
43528;DHT22;52359;42.658;23.320;2022-10-18T19:20:25;10.20;84.10
43528;DHT22;52359;42.658;23.320;2022-10-18T19:22:50;9.90;84.80
43528;DHT22;52359;42.658;23.320;2022-10-18T19:25:16;10.00;85.40
43528;DHT22;52359;42.658;23.320;2022-10-18T19:27:42;9.90;85.90
43528;DHT22;52359;42.658;23.320;2022-10-18T19:30:09;9.70;86.20
43528;DHT22;52359;42.658;23.320;2022-10-18T19:32:35;9.80;86.90
43528;DHT22;52359;42.658;23.320;2022-10-18T19:35:01;9.70;86.20
43528;DHT22;52359;42.658;23.320;2022-10-18T19:37:26;9.50;85.50
43528;DHT22;52359;42.658;23.320;2022-10-18T19:39:52;9.50;85.20
43528;DHT22;52359;42.658;23.320;2022-10-18T19:42:18;9.40;85.10
43528;DHT22;52359;42.658;23.320;2022-10-18T19:44:45;9.40;85.70
43528;DHT22;52359;42.658;23.320;2022-10-18T19:47:12;9.20;86.50
43528;DHT22;52359;42.658;23.320;2022-10-18T19:49:38;9.20;87.20
43528;DHT22;52359;42.658;23.320;2022-10-18T19:52:04;9.20;87.40
43528;DHT22;52359;42.658;23.320;2022-10-18T19:54:30;9.20;88.50
43528;DHT22;52359;42.658;23.320;2022-10-18T19:56:55;9.20;88.80
43528;DHT22;52359;42.658;23.320;2022-10-18T19:59:21;9.00;88.50
43528;DHT22;52359;42.658;23.320;2022-10-18T20:01:48;8.90;88.80
43528;DHT22;52359;42.658;23.320;2022-10-18T20:04:14;8.90;89.60
43528;DHT22;52359;42.658;23.320;2022-10-18T20:06:40;8.80;89.80
43528;DHT22;52359;42.658;23.320;2022-10-18T20:09:07;8.60;89.60
43528;DHT22;52359;42.658;23.320;2022-10-18T20:11:33;8.60;89.60
43528;DHT22;52359;42.658;23.320;2022-10-18T20:13:59;8.40;90.30
43528;DHT22;52359;42.658;23.320;2022-10-18T20:16:27;8.60;90.80
43528;DHT22;52359;42.658;23.320;2022-10-18T20:18:58;8.50;90.90
43528;DHT22;52359;42.658;23.320;2022-10-18T20:21:25;8.40;90.80
43528;DHT22;52359;42.658;23.320;2022-10-18T20:23:52;8.40;90.90
43528;DHT22;52359;42.658;23.320;2022-10-18T20:26:19;8.30;91.50
43528;DHT22;52359;42.658;23.320;2022-10-18T20:28:49;8.30;91.50
43528;DHT22;52359;42.658;23.320;2022-10-18T20:31:24;8.40;91.80
43528;DHT22;52359;42.658;23.320;2022-10-18T20:34:02;8.10;92.30
43528;DHT22;52359;42.658;23.320;2022-10-18T20:43:12;7.90;93.00
43528;DHT22;52359;42.658;23.320;2022-10-18T20:45:37;8.00;93.90
43528;DHT22;52359;42.658;23.320;2022-10-18T20:48:03;8.00;93.50
43528;DHT22;52359;42.658;23.320;2022-10-18T20:50:29;7.90;93.80
43528;DHT22;52359;42.658;23.320;2022-10-18T20:52:54;7.90;93.90
43528;DHT22;52359;42.658;23.320;2022-10-18T20:55:20;7.80;94.30
43528;DHT22;52359;42.658;23.320;2022-10-18T20:57:46;7.80;94.40
43528;DHT22;52359;42.658;23.320;2022-10-18T21:00:12;7.90;94.40
43528;DHT22;52359;42.658;23.320;2022-10-18T21:02:37;7.90;94.20
43528;DHT22;52359;42.658;23.320;2022-10-18T21:05:03;7.80;94.90
43528;DHT22;52359;42.658;23.320;2022-10-18T21:07:47;7.70;95.50
43528;DHT22;52359;42.658;23.320;2022-10-18T21:10:13;7.70;96.40
43528;DHT22;52359;42.658;23.320;2022-10-18T21:12:39;7.60;97.20
43528;DHT22;52359;42.658;23.320;2022-10-18T21:15:05;7.60;97.10
43528;DHT22;52359;42.658;23.320;2022-10-18T21:17:31;7.40;97.30
43528;DHT22;52359;42.658;23.320;2022-10-18T21:19:56;7.50;97.80
43528;DHT22;52359;42.658;23.320;2022-10-18T21:22:22;7.50;98.40
43528;DHT22;52359;42.658;23.320;2022-10-18T21:24:49;7.40;98.70
43528;DHT22;52359;42.658;23.320;2022-10-18T21:27:15;7.40;99.40
43528;DHT22;52359;42.658;23.320;2022-10-18T21:29:40;7.30;99.80
43528;DHT22;52359;42.658;23.320;2022-10-18T21:32:06;7.40;99.90
43528;DHT22;52359;42.658;23.320;2022-10-18T21:34:31;7.30;99.90
43528;DHT22;52359;42.658;23.320;2022-10-18T21:36:57;7.30;99.90
43528;DHT22;52359;42.658;23.320;2022-10-18T21:39:23;7.40;99.90
43528;DHT22;52359;42.658;23.320;2022-10-18T21:41:49;7.10;99.90
43528;DHT22;52359;42.658;23.320;2022-10-18T21:44:15;7.30;99.90
43528;DHT22;52359;42.658;23.320;2022-10-18T21:46:41;7.10;99.90
43528;DHT22;52359;42.658;23.320;2022-10-18T21:49:11;7.10;99.90
43528;DHT22;52359;42.658;23.320;2022-10-18T21:51:38;7.10;99.90
43528;DHT22;52359;42.658;23.320;2022-10-18T21:54:05;7.10;99.90
43528;DHT22;52359;42.658;23.320;2022-10-18T21:56:33;7.10;99.90
43528;DHT22;52359;42.658;23.320;2022-10-18T21:58:59;7.10;99.90
43528;DHT22;52359;42.658;23.320;2022-10-18T22:01:27;7.10;99.90
43528;DHT22;52359;42.658;23.320;2022-10-18T22:03:54;7.00;99.90
43528;DHT22;52359;42.658;23.320;2022-10-18T22:06:21;7.00;99.90
43528;DHT22;52359;42.658;23.320;2022-10-18T22:08:50;6.90;99.90
43528;DHT22;52359;42.658;23.320;2022-10-18T22:11:19;7.00;99.90
43528;DHT22;52359;42.658;23.320;2022-10-18T22:13:46;6.90;99.90
43528;DHT22;52359;42.658;23.320;2022-10-18T22:16:13;6.90;99.90
43528;DHT22;52359;42.658;23.320;2022-10-18T23:09:58;6.40;99.90
43528;DHT22;52359;42.658;23.320;2022-10-18T23:14:50;6.20;99.90
43528;DHT22;52359;42.658;23.320;2022-10-18T23:17:15;6.30;99.90
43528;DHT22;52359;42.658;23.320;2022-10-18T23:19:41;6.40;99.90
43528;DHT22;52359;42.658;23.320;2022-10-18T23:22:07;6.30;99.90
